Churchill Falls Airport

Jump to: basic info | weather | frequencies | runways | comments

Related pages: nearby airports | nearby navaids | notams | map

Basic information (top)

Codes: ZUM CZUM
Location: lon 53.561901, lat -64.106400, elev 1,442 ft / 440 m msl
Status: small_airport
Scheduled airline service: yes
Links: Wikipedia Mobile

Weather (top)

Current conditions (rec'd 2014/04/19 06:00Z):

CZUM 190600Z AUTO 00000KT 9SM FEW046 BKN055 BKN083 M07/M08 A3007 RMK SLP210

Airport forecast (rec'd 2014/04/19 02:39Z):

TAF CZUM 190138Z 1902/1914 31006KT P6SM SCT020 BKN060 
      TEMPO 1902/1905 3SM -SN BKN020 OVC060 
     FM190500 35006KT 3SM -SN BKN020 OVC050 
      TEMPO 1905/1910 P6SM -SN SCT020 OVC050 
     FM191000 01010KT P6SM -SN SCT020 BKN040 
      RMK FCST BASED ON AUTO OBS. NXT FCST BY 190800Z

Frequencies (top)

Verify before use: may be inaccurate or out of date.

ATF: 123.5 MHz (ATF)
AWOS: 122.55 MHz (AWOS)
CNTR: 126.025 MHz (GANDER CNTR)
RCO: 123.25 MHz (HALIFAX RDO)

Runways (top)

13/31: 5,500 x 150 ft (1,676 x 46 m) — paved — lighted

Latest comments (top)

churchill falls airport: no phone number [read]

More... (top)

See also NOTAMs and nearby airports and navaids, or visit the Churchill Falls Airport page at the main OurAirports website..